sensor_id;sensor_type;location;lat;lon;timestamp;P1;durP1;ratioP1;P2;durP2;ratioP2
18387;SDS011;9320;50.256;19.026;2022-12-01T00:01:17;34.67;;;19.37;;
18387;SDS011;9320;50.256;19.026;2022-12-01T00:03:45;37.30;;;20.17;;
18387;SDS011;9320;50.256;19.026;2022-12-01T00:06:14;33.77;;;18.40;;
18387;SDS011;9320;50.256;19.026;2022-12-01T00:08:43;39.57;;;20.63;;
18387;SDS011;9320;50.256;19.026;2022-12-01T00:11:27;30.00;;;18.13;;
18387;SDS011;9320;50.256;19.026;2022-12-01T00:13:55;30.13;;;18.83;;
18387;SDS011;9320;50.256;19.026;2022-12-01T00:16:24;35.43;;;18.63;;
18387;SDS011;9320;50.256;19.026;2022-12-01T00:18:53;35.83;;;18.90;;
18387;SDS011;9320;50.256;19.026;2022-12-01T00:21:22;37.97;;;19.27;;
18387;SDS011;9320;50.256;19.026;2022-12-01T00:23:51;31.77;;;18.03;;
18387;SDS011;9320;50.256;19.026;2022-12-01T00:26:20;32.57;;;18.30;;
18387;SDS011;9320;50.256;19.026;2022-12-01T00:28:49;31.63;;;18.03;;
18387;SDS011;9320;50.256;19.026;2022-12-01T00:31:17;33.27;;;17.67;;
18387;SDS011;9320;50.256;19.026;2022-12-01T00:33:47;33.70;;;17.80;;
18387;SDS011;9320;50.256;19.026;2022-12-01T00:36:15;28.27;;;16.67;;
18387;SDS011;9320;50.256;19.026;2022-12-01T00:38:44;29.63;;;16.37;;
18387;SDS011;9320;50.256;19.026;2022-12-01T00:41:12;29.03;;;16.30;;
18387;SDS011;9320;50.256;19.026;2022-12-01T00:43:40;29.83;;;18.37;;
18387;SDS011;9320;50.256;19.026;2022-12-01T00:46:08;27.40;;;16.63;;
18387;SDS011;9320;50.256;19.026;2022-12-01T00:48:36;29.03;;;17.53;;
18387;SDS011;9320;50.256;19.026;2022-12-01T00:51:06;28.40;;;17.00;;
18387;SDS011;9320;50.256;19.026;2022-12-01T00:53:34;25.97;;;16.33;;
18387;SDS011;9320;50.256;19.026;2022-12-01T00:56:02;31.23;;;17.70;;
18387;SDS011;9320;50.256;19.026;2022-12-01T00:58:30;24.23;;;15.87;;
18387;SDS011;9320;50.256;19.026;2022-12-01T01:00:58;28.53;;;16.60;;
18387;SDS011;9320;50.256;19.026;2022-12-01T01:03:28;26.03;;;16.07;;
18387;SDS011;9320;50.256;19.026;2022-12-01T01:06:02;26.97;;;15.60;;
18387;SDS011;9320;50.256;19.026;2022-12-01T01:08:33;32.17;;;16.33;;
18387;SDS011;9320;50.256;19.026;2022-12-01T01:11:01;25.57;;;15.43;;
18387;SDS011;9320;50.256;19.026;2022-12-01T01:13:30;27.77;;;16.13;;
18387;SDS011;9320;50.256;19.026;2022-12-01T01:15:58;23.37;;;14.73;;
18387;SDS011;9320;50.256;19.026;2022-12-01T01:18:28;23.77;;;15.13;;
18387;SDS011;9320;50.256;19.026;2022-12-01T01:20:56;27.20;;;15.87;;
18387;SDS011;9320;50.256;19.026;2022-12-01T01:23:25;24.83;;;15.17;;
18387;SDS011;9320;50.256;19.026;2022-12-01T01:25:59;26.83;;;16.07;;
18387;SDS011;9320;50.256;19.026;2022-12-01T01:28:28;24.70;;;15.47;;
18387;SDS011;9320;50.256;19.026;2022-12-01T01:30:56;26.93;;;16.17;;
18387;SDS011;9320;50.256;19.026;2022-12-01T01:33:25;25.33;;;16.60;;
18387;SDS011;9320;50.256;19.026;2022-12-01T01:35:53;26.93;;;15.77;;
18387;SDS011;9320;50.256;19.026;2022-12-01T01:38:25;26.47;;;16.03;;
18387;SDS011;9320;50.256;19.026;2022-12-01T01:40:53;27.07;;;15.97;;
18387;SDS011;9320;50.256;19.026;2022-12-01T01:46:15;27.27;;;16.03;;
18387;SDS011;9320;50.256;19.026;2022-12-01T01:48:46;27.37;;;16.03;;
18387;SDS011;9320;50.256;19.026;2022-12-01T01:51:17;26.27;;;15.60;;
18387;SDS011;9320;50.256;19.026;2022-12-01T01:53:48;29.20;;;17.50;;
18387;SDS011;9320;50.256;19.026;2022-12-01T01:56:20;26.53;;;16.30;;
18387;SDS011;9320;50.256;19.026;2022-12-01T01:58:49;27.83;;;16.87;;
18387;SDS011;9320;50.256;19.026;2022-12-01T02:01:19;30.33;;;17.70;;
18387;SDS011;9320;50.256;19.026;2022-12-01T02:03:47;33.00;;;17.90;;
18387;SDS011;9320;50.256;19.026;2022-12-01T02:06:18;29.13;;;16.50;;
18387;SDS011;9320;50.256;19.026;2022-12-01T02:08:47;29.30;;;16.20;;
18387;SDS011;9320;50.256;19.026;2022-12-01T02:11:29;28.50;;;17.40;;
18387;SDS011;9320;50.256;19.026;2022-12-01T02:14:22;29.33;;;18.43;;
18387;SDS011;9320;50.256;19.026;2022-12-01T02:17:19;34.23;;;19.30;;
18387;SDS011;9320;50.256;19.026;2022-12-01T02:23:00;34.60;;;20.07;;
18387;SDS011;9320;50.256;19.026;2022-12-01T02:25:52;33.97;;;19.37;;
18387;SDS011;9320;50.256;19.026;2022-12-01T02:28:41;32.63;;;19.57;;
18387;SDS011;9320;50.256;19.026;2022-12-01T02:31:25;31.33;;;19.40;;
18387;SDS011;9320;50.256;19.026;2022-12-01T02:34:01;34.83;;;19.17;;
18387;SDS011;9320;50.256;19.026;2022-12-01T02:36:39;33.97;;;17.80;;
18387;SDS011;9320;50.256;19.026;2022-12-01T02:39:15;31.50;;;18.30;;
18387;SDS011;9320;50.256;19.026;2022-12-01T02:41:47;30.27;;;17.50;;
18387;SDS011;9320;50.256;19.026;2022-12-01T02:44:19;29.47;;;18.07;;
18387;SDS011;9320;50.256;19.026;2022-12-01T02:46:54;29.53;;;17.40;;
18387;SDS011;9320;50.256;19.026;2022-12-01T02:49:27;29.33;;;16.80;;
18387;SDS011;9320;50.256;19.026;2022-12-01T02:52:01;32.27;;;19.00;;
18387;SDS011;9320;50.256;19.026;2022-12-01T02:54:31;32.33;;;19.10;;
18387;SDS011;9320;50.256;19.026;2022-12-01T02:57:01;31.07;;;18.53;;
18387;SDS011;9320;50.256;19.026;2022-12-01T02:59:29;36.97;;;20.70;;
18387;SDS011;9320;50.256;19.026;2022-12-01T03:02:02;29.20;;;18.00;;
18387;SDS011;9320;50.256;19.026;2022-12-01T03:04:38;32.40;;;18.80;;
18387;SDS011;9320;50.256;19.026;2022-12-01T03:07:21;33.13;;;19.90;;
18387;SDS011;9320;50.256;19.026;2022-12-01T03:10:08;35.83;;;20.13;;
18387;SDS011;9320;50.256;19.026;2022-12-01T03:12:44;33.97;;;18.50;;
18387;SDS011;9320;50.256;19.026;2022-12-01T03:15:21;28.60;;;17.80;;
18387;SDS011;9320;50.256;19.026;2022-12-01T03:17:59;29.93;;;17.43;;
18387;SDS011;9320;50.256;19.026;2022-12-01T03:20:34;34.90;;;18.33;;
18387;SDS011;9320;50.256;19.026;2022-12-01T03:23:08;25.90;;;16.33;;
18387;SDS011;9320;50.256;19.026;2022-12-01T03:25:41;26.87;;;16.57;;
18387;SDS011;9320;50.256;19.026;2022-12-01T03:28:13;30.17;;;17.90;;
18387;SDS011;9320;50.256;19.026;2022-12-01T03:30:47;28.93;;;17.63;;
18387;SDS011;9320;50.256;19.026;2022-12-01T03:33:25;33.53;;;18.20;;
18387;SDS011;9320;50.256;19.026;2022-12-01T03:35:56;31.13;;;18.37;;
18387;SDS011;9320;50.256;19.026;2022-12-01T03:38:29;29.37;;;17.67;;
18387;SDS011;9320;50.256;19.026;2022-12-01T03:41:03;28.97;;;18.00;;
18387;SDS011;9320;50.256;19.026;2022-12-01T03:43:36;30.43;;;17.93;;
18387;SDS011;9320;50.256;19.026;2022-12-01T03:46:08;31.87;;;18.87;;
18387;SDS011;9320;50.256;19.026;2022-12-01T03:48:44;32.47;;;19.50;;
18387;SDS011;9320;50.256;19.026;2022-12-01T03:51:13;34.13;;;18.23;;
18387;SDS011;9320;50.256;19.026;2022-12-01T03:53:50;32.97;;;18.40;;
18387;SDS011;9320;50.256;19.026;2022-12-01T03:56:24;28.97;;;17.87;;
18387;SDS011;9320;50.256;19.026;2022-12-01T03:58:56;28.33;;;17.57;;
18387;SDS011;9320;50.256;19.026;2022-12-01T04:01:28;29.27;;;18.00;;
18387;SDS011;9320;50.256;19.026;2022-12-01T04:04:05;31.50;;;18.73;;
18387;SDS011;9320;50.256;19.026;2022-12-01T04:06:34;33.57;;;19.20;;
18387;SDS011;9320;50.256;19.026;2022-12-01T04:09:02;35.77;;;19.93;;
18387;SDS011;9320;50.256;19.026;2022-12-01T04:11:31;34.53;;;20.10;;
18387;SDS011;9320;50.256;19.026;2022-12-01T04:14:16;38.00;;;20.10;;
18387;SDS011;9320;50.256;19.026;2022-12-01T04:16:44;30.77;;;18.53;;
18387;SDS011;9320;50.256;19.026;2022-12-01T04:19:14;31.70;;;18.00;;
18387;SDS011;9320;50.256;19.026;2022-12-01T04:21:42;29.30;;;18.80;;
18387;SDS011;9320;50.256;19.026;2022-12-01T04:24:10;29.00;;;17.23;;
18387;SDS011;9320;50.256;19.026;2022-12-01T04:26:39;28.27;;;18.13;;
18387;SDS011;9320;50.256;19.026;2022-12-01T04:29:08;34.47;;;18.93;;
18387;SDS011;9320;50.256;19.026;2022-12-01T04:31:37;30.17;;;19.17;;
18387;SDS011;9320;50.256;19.026;2022-12-01T04:34:05;32.63;;;19.80;;
18387;SDS011;9320;50.256;19.026;2022-12-01T04:36:35;32.17;;;19.77;;
18387;SDS011;9320;50.256;19.026;2022-12-01T04:39:04;38.33;;;20.63;;
18387;SDS011;9320;50.256;19.026;2022-12-01T04:41:32;34.33;;;20.47;;
18387;SDS011;9320;50.256;19.026;2022-12-01T04:44:00;35.87;;;20.37;;
18387;SDS011;9320;50.256;19.026;2022-12-01T04:46:28;36.47;;;20.43;;
18387;SDS011;9320;50.256;19.026;2022-12-01T04:48:56;38.10;;;20.33;;
18387;SDS011;9320;50.256;19.026;2022-12-01T04:51:24;35.80;;;20.13;;
18387;SDS011;9320;50.256;19.026;2022-12-01T04:53:53;31.33;;;18.77;;
18387;SDS011;9320;50.256;19.026;2022-12-01T04:56:21;35.77;;;19.60;;
18387;SDS011;9320;50.256;19.026;2022-12-01T04:58:49;33.40;;;19.17;;
18387;SDS011;9320;50.256;19.026;2022-12-01T05:01:17;29.80;;;17.57;;
18387;SDS011;9320;50.256;19.026;2022-12-01T05:03:46;31.07;;;17.90;;
18387;SDS011;9320;50.256;19.026;2022-12-01T05:06:16;28.73;;;17.80;;
18387;SDS011;9320;50.256;19.026;2022-12-01T05:08:45;28.90;;;16.80;;
18387;SDS011;9320;50.256;19.026;2022-12-01T05:11:15;29.43;;;17.07;;
18387;SDS011;9320;50.256;19.026;2022-12-01T05:13:45;28.53;;;17.33;;
18387;SDS011;9320;50.256;19.026;2022-12-01T05:16:15;25.63;;;16.80;;
18387;SDS011;9320;50.256;19.026;2022-12-01T05:18:46;27.83;;;17.00;;
18387;SDS011;9320;50.256;19.026;2022-12-01T05:21:15;26.90;;;16.80;;
18387;SDS011;9320;50.256;19.026;2022-12-01T05:23:43;27.20;;;16.60;;
18387;SDS011;9320;50.256;19.026;2022-12-01T05:26:11;27.03;;;16.50;;
18387;SDS011;9320;50.256;19.026;2022-12-01T05:28:41;29.20;;;16.23;;
18387;SDS011;9320;50.256;19.026;2022-12-01T05:31:09;27.07;;;16.60;;
18387;SDS011;9320;50.256;19.026;2022-12-01T05:33:37;28.67;;;16.03;;
18387;SDS011;9320;50.256;19.026;2022-12-01T05:36:05;27.83;;;16.90;;
18387;SDS011;9320;50.256;19.026;2022-12-01T05:38:33;27.10;;;15.70;;
18387;SDS011;9320;50.256;19.026;2022-12-01T05:41:01;26.97;;;16.73;;
18387;SDS011;9320;50.256;19.026;2022-12-01T05:43:30;29.77;;;17.20;;
18387;SDS011;9320;50.256;19.026;2022-12-01T05:45:59;27.90;;;16.97;;
18387;SDS011;9320;50.256;19.026;2022-12-01T05:48:27;27.27;;;16.97;;
18387;SDS011;9320;50.256;19.026;2022-12-01T05:50:55;29.73;;;18.17;;
18387;SDS011;9320;50.256;19.026;2022-12-01T05:53:23;27.63;;;17.00;;
18387;SDS011;9320;50.256;19.026;2022-12-01T05:55:51;27.30;;;16.50;;
18387;SDS011;9320;50.256;19.026;2022-12-01T05:58:20;29.67;;;17.60;;
18387;SDS011;9320;50.256;19.026;2022-12-01T06:00:48;29.07;;;17.17;;
18387;SDS011;9320;50.256;19.026;2022-12-01T06:03:17;29.70;;;16.63;;
18387;SDS011;9320;50.256;19.026;2022-12-01T06:05:45;26.50;;;16.40;;
18387;SDS011;9320;50.256;19.026;2022-12-01T06:08:13;27.43;;;16.50;;
18387;SDS011;9320;50.256;19.026;2022-12-01T06:10:42;25.87;;;15.53;;
18387;SDS011;9320;50.256;19.026;2022-12-01T06:13:10;29.30;;;17.17;;
18387;SDS011;9320;50.256;19.026;2022-12-01T06:15:38;29.93;;;17.63;;
18387;SDS011;9320;50.256;19.026;2022-12-01T06:18:06;31.00;;;17.50;;
18387;SDS011;9320;50.256;19.026;2022-12-01T06:20:36;28.33;;;17.23;;
18387;SDS011;9320;50.256;19.026;2022-12-01T06:23:04;34.00;;;19.30;;
18387;SDS011;9320;50.256;19.026;2022-12-01T06:25:32;31.13;;;17.43;;
18387;SDS011;9320;50.256;19.026;2022-12-01T06:27:59;27.23;;;16.77;;
18387;SDS011;9320;50.256;19.026;2022-12-01T06:30:28;29.83;;;17.13;;
18387;SDS011;9320;50.256;19.026;2022-12-01T06:32:56;26.10;;;17.33;;
18387;SDS011;9320;50.256;19.026;2022-12-01T06:35:24;28.50;;;17.73;;
18387;SDS011;9320;50.256;19.026;2022-12-01T06:37:53;33.13;;;18.63;;
18387;SDS011;9320;50.256;19.026;2022-12-01T06:40:21;31.10;;;18.13;;
18387;SDS011;9320;50.256;19.026;2022-12-01T06:42:49;33.77;;;18.67;;
18387;SDS011;9320;50.256;19.026;2022-12-01T06:45:17;28.00;;;17.23;;
18387;SDS011;9320;50.256;19.026;2022-12-01T06:47:45;27.10;;;16.53;;
18387;SDS011;9320;50.256;19.026;2022-12-01T06:50:14;25.33;;;14.97;;
18387;SDS011;9320;50.256;19.026;2022-12-01T06:52:42;23.90;;;15.10;;
18387;SDS011;9320;50.256;19.026;2022-12-01T06:55:11;24.20;;;15.43;;
18387;SDS011;9320;50.256;19.026;2022-12-01T06:57:40;26.47;;;16.73;;
18387;SDS011;9320;50.256;19.026;2022-12-01T07:00:09;29.83;;;19.23;;
18387;SDS011;9320;50.256;19.026;2022-12-01T07:02:39;32.90;;;18.97;;
18387;SDS011;9320;50.256;19.026;2022-12-01T07:05:07;32.63;;;19.53;;
18387;SDS011;9320;50.256;19.026;2022-12-01T07:07:36;33.63;;;18.17;;
18387;SDS011;9320;50.256;19.026;2022-12-01T07:10:05;26.90;;;16.90;;
18387;SDS011;9320;50.256;19.026;2022-12-01T07:12:35;34.97;;;18.20;;
18387;SDS011;9320;50.256;19.026;2022-12-01T07:15:04;31.87;;;18.80;;
18387;SDS011;9320;50.256;19.026;2022-12-01T07:17:34;26.23;;;16.20;;
18387;SDS011;9320;50.256;19.026;2022-12-01T07:20:02;24.87;;;16.63;;
18387;SDS011;9320;50.256;19.026;2022-12-01T07:22:31;27.20;;;15.87;;
18387;SDS011;9320;50.256;19.026;2022-12-01T07:24:59;25.27;;;15.23;;
18387;SDS011;9320;50.256;19.026;2022-12-01T07:27:28;24.07;;;15.07;;
18387;SDS011;9320;50.256;19.026;2022-12-01T07:29:58;25.33;;;15.20;;
18387;SDS011;9320;50.256;19.026;2022-12-01T07:32:26;26.97;;;15.80;;
18387;SDS011;9320;50.256;19.026;2022-12-01T07:34:54;26.17;;;16.17;;
18387;SDS011;9320;50.256;19.026;2022-12-01T07:37:22;26.37;;;15.63;;
18387;SDS011;9320;50.256;19.026;2022-12-01T07:39:52;26.67;;;17.00;;
18387;SDS011;9320;50.256;19.026;2022-12-01T07:42:20;27.70;;;17.07;;
18387;SDS011;9320;50.256;19.026;2022-12-01T07:44:48;26.90;;;16.50;;
18387;SDS011;9320;50.256;19.026;2022-12-01T07:47:17;29.00;;;17.13;;
18387;SDS011;9320;50.256;19.026;2022-12-01T07:49:45;30.30;;;18.97;;
18387;SDS011;9320;50.256;19.026;2022-12-01T07:52:13;33.30;;;17.33;;
18387;SDS011;9320;50.256;19.026;2022-12-01T07:54:41;25.63;;;16.13;;
18387;SDS011;9320;50.256;19.026;2022-12-01T07:57:09;27.30;;;16.47;;
18387;SDS011;9320;50.256;19.026;2022-12-01T07:59:39;27.07;;;16.03;;
18387;SDS011;9320;50.256;19.026;2022-12-01T08:02:07;29.33;;;17.40;;
18387;SDS011;9320;50.256;19.026;2022-12-01T08:04:37;23.87;;;15.57;;
18387;SDS011;9320;50.256;19.026;2022-12-01T08:07:05;27.90;;;16.47;;
18387;SDS011;9320;50.256;19.026;2022-12-01T08:09:33;29.00;;;15.97;;
18387;SDS011;9320;50.256;19.026;2022-12-01T08:12:02;25.03;;;15.43;;
18387;SDS011;9320;50.256;19.026;2022-12-01T08:14:30;24.87;;;15.93;;
18387;SDS011;9320;50.256;19.026;2022-12-01T08:16:58;29.27;;;15.87;;
18387;SDS011;9320;50.256;19.026;2022-12-01T08:19:26;28.60;;;15.70;;
18387;SDS011;9320;50.256;19.026;2022-12-01T08:21:56;22.87;;;15.47;;
18387;SDS011;9320;50.256;19.026;2022-12-01T08:24:24;23.77;;;15.17;;
18387;SDS011;9320;50.256;19.026;2022-12-01T08:26:52;25.60;;;16.47;;
18387;SDS011;9320;50.256;19.026;2022-12-01T08:29:20;27.90;;;16.33;;
18387;SDS011;9320;50.256;19.026;2022-12-01T08:31:47;29.57;;;17.30;;
18387;SDS011;9320;50.256;19.026;2022-12-01T08:34:15;24.43;;;15.50;;
18387;SDS011;9320;50.256;19.026;2022-12-01T08:36:44;26.53;;;16.23;;
18387;SDS011;9320;50.256;19.026;2022-12-01T08:39:13;26.17;;;15.30;;
18387;SDS011;9320;50.256;19.026;2022-12-01T08:41:41;35.63;;;16.37;;
18387;SDS011;9320;50.256;19.026;2022-12-01T08:44:10;31.03;;;17.80;;
18387;SDS011;9320;50.256;19.026;2022-12-01T08:46:38;29.67;;;17.53;;
18387;SDS011;9320;50.256;19.026;2022-12-01T08:49:06;30.40;;;17.53;;
18387;SDS011;9320;50.256;19.026;2022-12-01T08:51:34;31.63;;;17.43;;
18387;SDS011;9320;50.256;19.026;2022-12-01T08:54:02;34.80;;;18.07;;
18387;SDS011;9320;50.256;19.026;2022-12-01T08:56:33;28.23;;;16.43;;
18387;SDS011;9320;50.256;19.026;2022-12-01T08:59:03;31.07;;;17.00;;
18387;SDS011;9320;50.256;19.026;2022-12-01T09:01:31;29.87;;;17.93;;
18387;SDS011;9320;50.256;19.026;2022-12-01T09:04:00;27.83;;;16.43;;
18387;SDS011;9320;50.256;19.026;2022-12-01T09:06:36;27.37;;;16.23;;
18387;SDS011;9320;50.256;19.026;2022-12-01T09:09:06;38.80;;;19.50;;
18387;SDS011;9320;50.256;19.026;2022-12-01T09:11:37;32.53;;;19.57;;
18387;SDS011;9320;50.256;19.026;2022-12-01T09:14:05;34.17;;;19.50;;
18387;SDS011;9320;50.256;19.026;2022-12-01T09:16:33;32.33;;;19.47;;
18387;SDS011;9320;50.256;19.026;2022-12-01T09:19:02;40.47;;;20.60;;
18387;SDS011;9320;50.256;19.026;2022-12-01T09:21:30;42.43;;;21.73;;
18387;SDS011;9320;50.256;19.026;2022-12-01T09:24:00;40.63;;;20.87;;
18387;SDS011;9320;50.256;19.026;2022-12-01T09:26:29;41.53;;;20.97;;
18387;SDS011;9320;50.256;19.026;2022-12-01T09:29:00;36.20;;;20.40;;
18387;SDS011;9320;50.256;19.026;2022-12-01T09:31:31;36.63;;;20.47;;
18387;SDS011;9320;50.256;19.026;2022-12-01T09:34:00;41.07;;;20.43;;
18387;SDS011;9320;50.256;19.026;2022-12-01T09:36:30;40.60;;;20.20;;
18387;SDS011;9320;50.256;19.026;2022-12-01T09:38:59;34.87;;;19.70;;
18387;SDS011;9320;50.256;19.026;2022-12-01T09:41:29;39.17;;;19.63;;
18387;SDS011;9320;50.256;19.026;2022-12-01T09:44:01;34.67;;;18.00;;
18387;SDS011;9320;50.256;19.026;2022-12-01T09:46:41;32.20;;;16.77;;
18387;SDS011;9320;50.256;19.026;2022-12-01T09:49:15;31.30;;;17.30;;
18387;SDS011;9320;50.256;19.026;2022-12-01T09:51:45;32.50;;;18.10;;
18387;SDS011;9320;50.256;19.026;2022-12-01T09:54:13;32.70;;;17.73;;
18387;SDS011;9320;50.256;19.026;2022-12-01T09:56:42;32.13;;;18.07;;
18387;SDS011;9320;50.256;19.026;2022-12-01T09:59:16;32.90;;;16.97;;
18387;SDS011;9320;50.256;19.026;2022-12-01T10:01:51;35.70;;;15.73;;
18387;SDS011;9320;50.256;19.026;2022-12-01T10:04:24;40.50;;;17.50;;
18387;SDS011;9320;50.256;19.026;2022-12-01T10:06:57;81.90;;;18.77;;
18387;SDS011;9320;50.256;19.026;2022-12-01T10:09:28;30.30;;;16.50;;
18387;SDS011;9320;50.256;19.026;2022-12-01T10:12:05;60.13;;;18.40;;
18387;SDS011;9320;50.256;19.026;2022-12-01T10:14:42;30.17;;;17.00;;
18387;SDS011;9320;50.256;19.026;2022-12-01T10:17:14;26.27;;;16.40;;
18387;SDS011;9320;50.256;19.026;2022-12-01T10:19:50;33.80;;;16.50;;
18387;SDS011;9320;50.256;19.026;2022-12-01T10:22:32;25.77;;;16.07;;
18387;SDS011;9320;50.256;19.026;2022-12-01T10:25:15;29.03;;;16.57;;
18387;SDS011;9320;50.256;19.026;2022-12-01T10:27:54;27.60;;;16.57;;
18387;SDS011;9320;50.256;19.026;2022-12-01T10:30:41;32.80;;;17.70;;
18387;SDS011;9320;50.256;19.026;2022-12-01T10:33:17;26.97;;;17.10;;
18387;SDS011;9320;50.256;19.026;2022-12-01T10:35:50;39.23;;;18.07;;
18387;SDS011;9320;50.256;19.026;2022-12-01T10:38:23;34.90;;;17.63;;
18387;SDS011;9320;50.256;19.026;2022-12-01T10:40:53;32.50;;;16.73;;
18387;SDS011;9320;50.256;19.026;2022-12-01T10:43:25;52.13;;;17.13;;
18387;SDS011;9320;50.256;19.026;2022-12-01T10:46:00;46.33;;;18.17;;
18387;SDS011;9320;50.256;19.026;2022-12-01T10:48:50;46.10;;;18.80;;
18387;SDS011;9320;50.256;19.026;2022-12-01T10:51:20;63.33;;;18.80;;
18387;SDS011;9320;50.256;19.026;2022-12-01T10:53:49;42.23;;;17.93;;
18387;SDS011;9320;50.256;19.026;2022-12-01T10:56:23;39.97;;;17.17;;
18387;SDS011;9320;50.256;19.026;2022-12-01T10:58:52;39.83;;;18.53;;
18387;SDS011;9320;50.256;19.026;2022-12-01T11:01:23;36.07;;;18.10;;
18387;SDS011;9320;50.256;19.026;2022-12-01T11:03:54;51.43;;;22.83;;
18387;SDS011;9320;50.256;19.026;2022-12-01T11:06:28;36.00;;;18.80;;
18387;SDS011;9320;50.256;19.026;2022-12-01T11:08:58;34.80;;;18.47;;
18387;SDS011;9320;50.256;19.026;2022-12-01T11:11:29;34.47;;;17.00;;
18387;SDS011;9320;50.256;19.026;2022-12-01T11:14:00;33.23;;;18.30;;
18387;SDS011;9320;50.256;19.026;2022-12-01T11:16:38;31.73;;;18.53;;
18387;SDS011;9320;50.256;19.026;2022-12-01T11:19:15;34.20;;;20.03;;
18387;SDS011;9320;50.256;19.026;2022-12-01T11:21:53;40.10;;;20.90;;
18387;SDS011;9320;50.256;19.026;2022-12-01T11:24:27;35.03;;;20.50;;
18387;SDS011;9320;50.256;19.026;2022-12-01T11:26:58;43.93;;;21.90;;
18387;SDS011;9320;50.256;19.026;2022-12-01T11:29:31;40.93;;;22.53;;
18387;SDS011;9320;50.256;19.026;2022-12-01T11:32:11;45.70;;;22.03;;
18387;SDS011;9320;50.256;19.026;2022-12-01T11:34:47;36.73;;;20.77;;
18387;SDS011;9320;50.256;19.026;2022-12-01T11:37:17;37.87;;;21.80;;
18387;SDS011;9320;50.256;19.026;2022-12-01T11:39:47;36.70;;;20.03;;
18387;SDS011;9320;50.256;19.026;2022-12-01T11:42:22;33.07;;;18.50;;
18387;SDS011;9320;50.256;19.026;2022-12-01T11:44:54;31.83;;;18.03;;
18387;SDS011;9320;50.256;19.026;2022-12-01T11:47:25;29.83;;;17.20;;
18387;SDS011;9320;50.256;19.026;2022-12-01T11:49:54;28.53;;;17.00;;
18387;SDS011;9320;50.256;19.026;2022-12-01T11:52:25;25.83;;;14.47;;
18387;SDS011;9320;50.256;19.026;2022-12-01T11:54:57;29.27;;;16.00;;
18387;SDS011;9320;50.256;19.026;2022-12-01T11:57:34;27.23;;;15.77;;
18387;SDS011;9320;50.256;19.026;2022-12-01T12:00:08;35.53;;;20.07;;
18387;SDS011;9320;50.256;19.026;2022-12-01T12:02:44;39.33;;;21.77;;
18387;SDS011;9320;50.256;19.026;2022-12-01T12:05:27;37.50;;;21.07;;
18387;SDS011;9320;50.256;19.026;2022-12-01T12:08:12;34.17;;;19.77;;
18387;SDS011;9320;50.256;19.026;2022-12-01T12:10:49;29.40;;;16.93;;
18387;SDS011;9320;50.256;19.026;2022-12-01T12:13:35;33.73;;;18.17;;
18387;SDS011;9320;50.256;19.026;2022-12-01T12:16:29;30.83;;;18.60;;
18387;SDS011;9320;50.256;19.026;2022-12-01T12:19:20;33.20;;;19.00;;
18387;SDS011;9320;50.256;19.026;2022-12-01T12:22:14;27.53;;;17.27;;
18387;SDS011;9320;50.256;19.026;2022-12-01T12:24:54;27.03;;;16.10;;
18387;SDS011;9320;50.256;19.026;2022-12-01T12:27:35;25.30;;;14.90;;
18387;SDS011;9320;50.256;19.026;2022-12-01T12:30:18;27.27;;;15.63;;
18387;SDS011;9320;50.256;19.026;2022-12-01T12:32:59;25.33;;;15.17;;
18387;SDS011;9320;50.256;19.026;2022-12-01T12:35:51;21.53;;;14.07;;
18387;SDS011;9320;50.256;19.026;2022-12-01T12:38:34;25.63;;;15.43;;
18387;SDS011;9320;50.256;19.026;2022-12-01T12:41:18;24.47;;;14.03;;
18387;SDS011;9320;50.256;19.026;2022-12-01T12:44:00;31.03;;;16.63;;
18387;SDS011;9320;50.256;19.026;2022-12-01T12:46:39;32.53;;;17.70;;
18387;SDS011;9320;50.256;19.026;2022-12-01T12:49:21;29.47;;;17.53;;
18387;SDS011;9320;50.256;19.026;2022-12-01T12:52:00;32.70;;;19.70;;
18387;SDS011;9320;50.256;19.026;2022-12-01T12:54:35;34.07;;;18.60;;
18387;SDS011;9320;50.256;19.026;2022-12-01T12:57:12;37.17;;;19.50;;
18387;SDS011;9320;50.256;19.026;2022-12-01T12:59:51;30.63;;;18.20;;
18387;SDS011;9320;50.256;19.026;2022-12-01T13:02:25;26.70;;;17.53;;
18387;SDS011;9320;50.256;19.026;2022-12-01T13:04:59;40.70;;;19.23;;
18387;SDS011;9320;50.256;19.026;2022-12-01T13:07:35;34.23;;;18.10;;
18387;SDS011;9320;50.256;19.026;2022-12-01T13:10:10;31.93;;;17.43;;
18387;SDS011;9320;50.256;19.026;2022-12-01T13:12:50;28.00;;;18.00;;
18387;SDS011;9320;50.256;19.026;2022-12-01T13:15:23;29.53;;;17.67;;
18387;SDS011;9320;50.256;19.026;2022-12-01T13:17:55;30.13;;;17.90;;
18387;SDS011;9320;50.256;19.026;2022-12-01T13:20:27;28.83;;;16.70;;
18387;SDS011;9320;50.256;19.026;2022-12-01T13:22:58;34.97;;;17.83;;
18387;SDS011;9320;50.256;19.026;2022-12-01T13:25:29;32.10;;;18.00;;
18387;SDS011;9320;50.256;19.026;2022-12-01T13:28:01;34.80;;;19.93;;
18387;SDS011;9320;50.256;19.026;2022-12-01T13:30:32;29.67;;;17.10;;
18387;SDS011;9320;50.256;19.026;2022-12-01T13:33:00;28.83;;;17.43;;
18387;SDS011;9320;50.256;19.026;2022-12-01T13:35:31;29.87;;;16.37;;
18387;SDS011;9320;50.256;19.026;2022-12-01T13:41:08;31.07;;;17.67;;
18387;SDS011;9320;50.256;19.026;2022-12-01T13:43:45;31.47;;;18.23;;
18387;SDS011;9320;50.256;19.026;2022-12-01T13:46:20;36.13;;;21.33;;
18387;SDS011;9320;50.256;19.026;2022-12-01T13:48:51;29.47;;;18.40;;
18387;SDS011;9320;50.256;19.026;2022-12-01T13:51:20;31.70;;;18.60;;
18387;SDS011;9320;50.256;19.026;2022-12-01T13:53:55;33.30;;;18.13;;
18387;SDS011;9320;50.256;19.026;2022-12-01T13:56:43;34.87;;;20.47;;
18387;SDS011;9320;50.256;19.026;2022-12-01T14:02:26;49.93;;;21.00;;
18387;SDS011;9320;50.256;19.026;2022-12-01T14:07:57;45.43;;;20.40;;
18387;SDS011;9320;50.256;19.026;2022-12-01T14:10:27;42.20;;;19.27;;
18387;SDS011;9320;50.256;19.026;2022-12-01T14:12:59;28.97;;;15.13;;
18387;SDS011;9320;50.256;19.026;2022-12-01T14:15:33;35.67;;;16.80;;
18387;SDS011;9320;50.256;19.026;2022-12-01T14:18:28;29.23;;;17.93;;
18387;SDS011;9320;50.256;19.026;2022-12-01T14:20:59;32.00;;;18.50;;
18387;SDS011;9320;50.256;19.026;2022-12-01T14:23:30;42.03;;;19.40;;
18387;SDS011;9320;50.256;19.026;2022-12-01T14:26:09;38.77;;;19.17;;
18387;SDS011;9320;50.256;19.026;2022-12-01T14:34:54;32.83;;;17.53;;
18387;SDS011;9320;50.256;19.026;2022-12-01T14:37:27;32.97;;;17.53;;
18387;SDS011;9320;50.256;19.026;2022-12-01T14:40:04;29.00;;;18.53;;
18387;SDS011;9320;50.256;19.026;2022-12-01T14:42:39;32.03;;;18.40;;
18387;SDS011;9320;50.256;19.026;2022-12-01T14:45:28;28.00;;;16.93;;
18387;SDS011;9320;50.256;19.026;2022-12-01T14:48:00;24.97;;;15.07;;
18387;SDS011;9320;50.256;19.026;2022-12-01T14:50:32;26.53;;;16.63;;
18387;SDS011;9320;50.256;19.026;2022-12-01T14:53:16;23.53;;;15.03;;
18387;SDS011;9320;50.256;19.026;2022-12-01T14:55:49;24.00;;;14.93;;
18387;SDS011;9320;50.256;19.026;2022-12-01T14:58:23;20.50;;;14.17;;
18387;SDS011;9320;50.256;19.026;2022-12-01T15:00:59;31.87;;;14.87;;
18387;SDS011;9320;50.256;19.026;2022-12-01T15:03:32;34.00;;;16.97;;
18387;SDS011;9320;50.256;19.026;2022-12-01T15:06:03;26.37;;;16.43;;
18387;SDS011;9320;50.256;19.026;2022-12-01T15:08:32;27.50;;;16.33;;
18387;SDS011;9320;50.256;19.026;2022-12-01T15:11:23;26.30;;;16.70;;